Genoa, West Virginia
Current Conditions -  °F | °C
As of 3:51 AM on Monday 20 Oct 2014 (Local Time) from KHTS Reporting Station
Clear Clear  
Wind Chill: 39°   Ceiling: Unl
Heat Index: 39°   Visibility: 10mi
Dew Point: 38°   Wind: 0mph
Humidity: 96%   Direction: NA
Pressure: 30.06"   Gusts: NA
Location:  38.12°N, 82.46°W
Report Text: KHTS 200751Z 00000KT 10SM CLR 04/03 A3006 RMK AO2 SLP178 T00390033
Loading
Personal Weather Stations






























Interactive Weather Map
Tropical Storm Tracking
New forecast layout! Learn more

10-Day Weather Forecast

Advertisements
Track Severe Weather on mobile